sensor_id;sensor_type;location;lat;lon;timestamp;P1;durP1;ratioP1;P2;durP2;ratioP2
20393;SDS011;10356;50.544;9.642;2024-03-06T00:01:40;34.80;;;19.20;;
20393;SDS011;10356;50.544;9.642;2024-03-06T00:04:08;29.50;;;17.10;;
20393;SDS011;10356;50.544;9.642;2024-03-06T00:06:34;31.40;;;16.77;;
20393;SDS011;10356;50.544;9.642;2024-03-06T00:09:01;29.83;;;16.30;;
20393;SDS011;10356;50.544;9.642;2024-03-06T00:11:28;33.90;;;18.10;;
20393;SDS011;10356;50.544;9.642;2024-03-06T00:13:55;30.53;;;17.47;;
20393;SDS011;10356;50.544;9.642;2024-03-06T00:16:21;34.17;;;18.20;;
20393;SDS011;10356;50.544;9.642;2024-03-06T00:18:48;32.97;;;19.30;;
20393;SDS011;10356;50.544;9.642;2024-03-06T00:21:16;35.97;;;19.30;;
20393;SDS011;10356;50.544;9.642;2024-03-06T00:23:43;31.70;;;17.37;;
20393;SDS011;10356;50.544;9.642;2024-03-06T00:26:11;28.47;;;16.53;;
20393;SDS011;10356;50.544;9.642;2024-03-06T00:28:37;32.43;;;18.17;;
20393;SDS011;10356;50.544;9.642;2024-03-06T00:31:04;35.53;;;19.50;;
20393;SDS011;10356;50.544;9.642;2024-03-06T00:33:31;30.77;;;17.33;;
20393;SDS011;10356;50.544;9.642;2024-03-06T00:35:58;32.97;;;18.10;;
20393;SDS011;10356;50.544;9.642;2024-03-06T00:38:25;29.33;;;16.30;;
20393;SDS011;10356;50.544;9.642;2024-03-06T00:40:52;25.90;;;15.53;;
20393;SDS011;10356;50.544;9.642;2024-03-06T00:43:18;31.50;;;17.03;;
20393;SDS011;10356;50.544;9.642;2024-03-06T00:45:45;28.37;;;16.17;;
20393;SDS011;10356;50.544;9.642;2024-03-06T00:48:11;30.73;;;16.63;;
20393;SDS011;10356;50.544;9.642;2024-03-06T00:50:38;27.67;;;15.63;;
20393;SDS011;10356;50.544;9.642;2024-03-06T00:53:05;29.53;;;16.27;;
20393;SDS011;10356;50.544;9.642;2024-03-06T00:55:33;32.37;;;17.57;;
20393;SDS011;10356;50.544;9.642;2024-03-06T00:58:00;34.57;;;17.83;;
20393;SDS011;10356;50.544;9.642;2024-03-06T01:00:26;32.50;;;17.17;;
20393;SDS011;10356;50.544;9.642;2024-03-06T01:02:53;28.33;;;14.80;;
20393;SDS011;10356;50.544;9.642;2024-03-06T01:05:20;33.00;;;18.13;;
20393;SDS011;10356;50.544;9.642;2024-03-06T01:07:47;30.53;;;17.80;;
20393;SDS011;10356;50.544;9.642;2024-03-06T01:10:13;31.03;;;17.00;;
20393;SDS011;10356;50.544;9.642;2024-03-06T01:12:41;33.07;;;18.73;;
20393;SDS011;10356;50.544;9.642;2024-03-06T01:15:10;30.70;;;17.07;;
20393;SDS011;10356;50.544;9.642;2024-03-06T01:17:37;34.23;;;18.10;;
20393;SDS011;10356;50.544;9.642;2024-03-06T01:20:04;33.20;;;18.83;;
20393;SDS011;10356;50.544;9.642;2024-03-06T01:22:32;37.87;;;20.67;;
20393;SDS011;10356;50.544;9.642;2024-03-06T01:24:58;35.60;;;19.60;;
20393;SDS011;10356;50.544;9.642;2024-03-06T01:27:25;39.30;;;19.70;;
20393;SDS011;10356;50.544;9.642;2024-03-06T01:29:53;32.17;;;17.47;;
20393;SDS011;10356;50.544;9.642;2024-03-06T01:32:19;37.07;;;19.57;;
20393;SDS011;10356;50.544;9.642;2024-03-06T01:34:46;37.27;;;19.30;;
20393;SDS011;10356;50.544;9.642;2024-03-06T01:37:12;43.90;;;20.60;;
20393;SDS011;10356;50.544;9.642;2024-03-06T01:39:39;39.13;;;21.03;;
20393;SDS011;10356;50.544;9.642;2024-03-06T01:42:05;36.63;;;19.67;;
20393;SDS011;10356;50.544;9.642;2024-03-06T01:44:32;40.97;;;20.93;;
20393;SDS011;10356;50.544;9.642;2024-03-06T01:46:59;38.40;;;20.30;;
20393;SDS011;10356;50.544;9.642;2024-03-06T01:49:26;36.23;;;20.10;;
20393;SDS011;10356;50.544;9.642;2024-03-06T01:51:53;41.27;;;20.97;;
20393;SDS011;10356;50.544;9.642;2024-03-06T01:54:24;37.60;;;20.13;;
20393;SDS011;10356;50.544;9.642;2024-03-06T01:56:52;36.33;;;18.40;;
20393;SDS011;10356;50.544;9.642;2024-03-06T01:59:20;31.73;;;18.73;;
20393;SDS011;10356;50.544;9.642;2024-03-06T02:01:51;38.00;;;19.43;;
20393;SDS011;10356;50.544;9.642;2024-03-06T02:04:20;33.17;;;17.73;;
20393;SDS011;10356;50.544;9.642;2024-03-06T02:06:46;33.33;;;19.40;;
20393;SDS011;10356;50.544;9.642;2024-03-06T02:09:14;37.23;;;19.20;;
20393;SDS011;10356;50.544;9.642;2024-03-06T02:11:40;36.63;;;19.13;;
20393;SDS011;10356;50.544;9.642;2024-03-06T02:14:07;34.40;;;19.90;;
20393;SDS011;10356;50.544;9.642;2024-03-06T02:16:34;43.03;;;22.30;;
20393;SDS011;10356;50.544;9.642;2024-03-06T02:19:01;35.53;;;19.60;;
20393;SDS011;10356;50.544;9.642;2024-03-06T02:21:29;36.23;;;20.00;;
20393;SDS011;10356;50.544;9.642;2024-03-06T02:23:56;38.47;;;21.17;;
20393;SDS011;10356;50.544;9.642;2024-03-06T02:26:23;34.33;;;19.07;;
20393;SDS011;10356;50.544;9.642;2024-03-06T02:28:50;38.67;;;21.33;;
20393;SDS011;10356;50.544;9.642;2024-03-06T02:31:18;34.23;;;19.03;;
20393;SDS011;10356;50.544;9.642;2024-03-06T02:33:45;32.03;;;18.50;;
20393;SDS011;10356;50.544;9.642;2024-03-06T02:36:13;37.03;;;20.53;;
20393;SDS011;10356;50.544;9.642;2024-03-06T02:38:41;38.93;;;20.67;;
20393;SDS011;10356;50.544;9.642;2024-03-06T02:41:08;35.63;;;19.80;;
20393;SDS011;10356;50.544;9.642;2024-03-06T02:43:35;38.30;;;20.83;;
20393;SDS011;10356;50.544;9.642;2024-03-06T02:46:02;38.87;;;22.13;;
20393;SDS011;10356;50.544;9.642;2024-03-06T02:48:29;38.63;;;21.97;;
20393;SDS011;10356;50.544;9.642;2024-03-06T02:50:56;42.17;;;23.07;;
20393;SDS011;10356;50.544;9.642;2024-03-06T02:53:23;39.40;;;22.87;;
20393;SDS011;10356;50.544;9.642;2024-03-06T02:55:51;47.47;;;23.93;;
20393;SDS011;10356;50.544;9.642;2024-03-06T02:58:18;44.70;;;23.73;;
20393;SDS011;10356;50.544;9.642;2024-03-06T03:00:44;45.43;;;23.83;;
20393;SDS011;10356;50.544;9.642;2024-03-06T03:03:11;48.37;;;23.77;;
20393;SDS011;10356;50.544;9.642;2024-03-06T03:05:38;44.87;;;24.63;;
20393;SDS011;10356;50.544;9.642;2024-03-06T03:08:05;46.17;;;23.97;;
20393;SDS011;10356;50.544;9.642;2024-03-06T03:10:33;46.33;;;25.50;;
20393;SDS011;10356;50.544;9.642;2024-03-06T03:13:01;49.07;;;25.07;;
20393;SDS011;10356;50.544;9.642;2024-03-06T03:15:29;45.23;;;24.23;;
20393;SDS011;10356;50.544;9.642;2024-03-06T03:17:56;43.77;;;23.10;;
20393;SDS011;10356;50.544;9.642;2024-03-06T03:20:22;48.03;;;23.93;;
20393;SDS011;10356;50.544;9.642;2024-03-06T03:22:49;48.03;;;25.73;;
20393;SDS011;10356;50.544;9.642;2024-03-06T03:25:15;51.67;;;25.00;;
20393;SDS011;10356;50.544;9.642;2024-03-06T03:27:42;47.83;;;25.30;;
20393;SDS011;10356;50.544;9.642;2024-03-06T03:30:10;52.47;;;25.63;;
20393;SDS011;10356;50.544;9.642;2024-03-06T03:32:37;52.13;;;24.20;;
20393;SDS011;10356;50.544;9.642;2024-03-06T03:35:04;47.00;;;24.87;;
20393;SDS011;10356;50.544;9.642;2024-03-06T03:37:31;50.50;;;26.20;;
20393;SDS011;10356;50.544;9.642;2024-03-06T03:39:57;50.63;;;25.13;;
20393;SDS011;10356;50.544;9.642;2024-03-06T03:42:24;48.83;;;24.23;;
20393;SDS011;10356;50.544;9.642;2024-03-06T03:44:50;49.03;;;25.43;;
20393;SDS011;10356;50.544;9.642;2024-03-06T03:47:19;50.77;;;25.57;;
20393;SDS011;10356;50.544;9.642;2024-03-06T03:49:45;48.07;;;26.07;;
20393;SDS011;10356;50.544;9.642;2024-03-06T03:52:12;45.07;;;24.00;;
20393;SDS011;10356;50.544;9.642;2024-03-06T03:54:39;47.60;;;24.13;;
20393;SDS011;10356;50.544;9.642;2024-03-06T03:57:06;47.37;;;24.57;;
20393;SDS011;10356;50.544;9.642;2024-03-06T03:59:33;47.23;;;24.70;;
20393;SDS011;10356;50.544;9.642;2024-03-06T04:02:00;46.87;;;24.07;;
20393;SDS011;10356;50.544;9.642;2024-03-06T04:04:28;48.60;;;24.27;;
20393;SDS011;10356;50.544;9.642;2024-03-06T04:06:55;50.20;;;25.23;;
20393;SDS011;10356;50.544;9.642;2024-03-06T04:09:24;45.50;;;24.33;;
20393;SDS011;10356;50.544;9.642;2024-03-06T04:11:51;47.53;;;24.30;;
20393;SDS011;10356;50.544;9.642;2024-03-06T04:14:17;43.43;;;21.53;;
20393;SDS011;10356;50.544;9.642;2024-03-06T04:16:45;49.20;;;25.40;;
20393;SDS011;10356;50.544;9.642;2024-03-06T04:19:11;50.90;;;25.57;;
20393;SDS011;10356;50.544;9.642;2024-03-06T04:21:41;49.30;;;24.93;;
20393;SDS011;10356;50.544;9.642;2024-03-06T04:24:08;52.73;;;26.63;;
20393;SDS011;10356;50.544;9.642;2024-03-06T04:26:34;52.57;;;26.50;;
20393;SDS011;10356;50.544;9.642;2024-03-06T04:29:01;52.30;;;27.30;;
20393;SDS011;10356;50.544;9.642;2024-03-06T04:31:28;52.13;;;26.47;;
20393;SDS011;10356;50.544;9.642;2024-03-06T04:33:55;49.67;;;25.60;;
20393;SDS011;10356;50.544;9.642;2024-03-06T04:36:21;57.10;;;27.87;;
20393;SDS011;10356;50.544;9.642;2024-03-06T04:38:49;53.70;;;27.47;;
20393;SDS011;10356;50.544;9.642;2024-03-06T04:41:17;52.53;;;25.37;;
20393;SDS011;10356;50.544;9.642;2024-03-06T04:43:44;51.10;;;25.63;;
20393;SDS011;10356;50.544;9.642;2024-03-06T04:46:12;52.83;;;26.60;;
20393;SDS011;10356;50.544;9.642;2024-03-06T04:48:39;50.10;;;25.20;;
20393;SDS011;10356;50.544;9.642;2024-03-06T04:51:05;53.93;;;27.67;;
20393;SDS011;10356;50.544;9.642;2024-03-06T04:53:32;50.83;;;26.83;;
20393;SDS011;10356;50.544;9.642;2024-03-06T04:55:59;48.73;;;25.27;;
20393;SDS011;10356;50.544;9.642;2024-03-06T04:58:26;51.13;;;25.03;;
20393;SDS011;10356;50.544;9.642;2024-03-06T05:00:52;50.23;;;26.20;;
20393;SDS011;10356;50.544;9.642;2024-03-06T05:03:20;51.30;;;26.17;;
20393;SDS011;10356;50.544;9.642;2024-03-06T05:05:47;60.63;;;27.60;;
20393;SDS011;10356;50.544;9.642;2024-03-06T05:08:13;58.03;;;27.50;;
20393;SDS011;10356;50.544;9.642;2024-03-06T05:10:40;47.10;;;24.73;;
20393;SDS011;10356;50.544;9.642;2024-03-06T05:13:08;51.10;;;25.37;;
20393;SDS011;10356;50.544;9.642;2024-03-06T05:15:34;55.57;;;26.50;;
20393;SDS011;10356;50.544;9.642;2024-03-06T05:18:01;51.73;;;26.37;;
20393;SDS011;10356;50.544;9.642;2024-03-06T05:20:28;49.73;;;24.87;;
20393;SDS011;10356;50.544;9.642;2024-03-06T05:22:55;54.97;;;26.93;;
20393;SDS011;10356;50.544;9.642;2024-03-06T05:25:22;64.20;;;28.37;;
20393;SDS011;10356;50.544;9.642;2024-03-06T05:27:49;62.67;;;28.37;;
20393;SDS011;10356;50.544;9.642;2024-03-06T05:30:17;66.27;;;29.93;;
20393;SDS011;10356;50.544;9.642;2024-03-06T05:32:44;60.10;;;29.93;;
20393;SDS011;10356;50.544;9.642;2024-03-06T05:35:12;59.60;;;29.83;;
20393;SDS011;10356;50.544;9.642;2024-03-06T05:37:38;72.20;;;32.20;;
20393;SDS011;10356;50.544;9.642;2024-03-06T05:40:05;73.87;;;32.67;;
20393;SDS011;10356;50.544;9.642;2024-03-06T05:42:34;73.20;;;34.23;;
20393;SDS011;10356;50.544;9.642;2024-03-06T05:45:00;76.00;;;34.77;;
20393;SDS011;10356;50.544;9.642;2024-03-06T05:47:31;79.50;;;36.33;;
20393;SDS011;10356;50.544;9.642;2024-03-06T05:49:59;76.50;;;34.90;;
20393;SDS011;10356;50.544;9.642;2024-03-06T05:52:25;87.40;;;39.13;;
20393;SDS011;10356;50.544;9.642;2024-03-06T05:54:52;81.60;;;38.63;;
20393;SDS011;10356;50.544;9.642;2024-03-06T05:57:18;85.30;;;37.80;;
20393;SDS011;10356;50.544;9.642;2024-03-06T05:59:45;84.73;;;37.57;;
20393;SDS011;10356;50.544;9.642;2024-03-06T06:02:11;78.53;;;35.93;;
20393;SDS011;10356;50.544;9.642;2024-03-06T06:04:39;82.90;;;37.10;;
20393;SDS011;10356;50.544;9.642;2024-03-06T06:07:06;89.40;;;37.37;;
20393;SDS011;10356;50.544;9.642;2024-03-06T06:09:32;76.70;;;35.43;;
20393;SDS011;10356;50.544;9.642;2024-03-06T06:11:58;82.73;;;38.20;;
20393;SDS011;10356;50.544;9.642;2024-03-06T06:14:25;85.63;;;38.87;;
20393;SDS011;10356;50.544;9.642;2024-03-06T06:16:52;91.90;;;38.40;;
20393;SDS011;10356;50.544;9.642;2024-03-06T06:19:18;87.87;;;38.93;;
20393;SDS011;10356;50.544;9.642;2024-03-06T06:21:46;85.60;;;38.50;;
20393;SDS011;10356;50.544;9.642;2024-03-06T06:24:13;83.03;;;38.17;;
20393;SDS011;10356;50.544;9.642;2024-03-06T06:26:39;79.30;;;38.53;;
20393;SDS011;10356;50.544;9.642;2024-03-06T06:29:07;88.53;;;40.27;;
20393;SDS011;10356;50.544;9.642;2024-03-06T06:31:33;82.67;;;38.80;;
20393;SDS011;10356;50.544;9.642;2024-03-06T06:34:00;82.13;;;38.57;;
20393;SDS011;10356;50.544;9.642;2024-03-06T06:36:26;87.73;;;40.10;;
20393;SDS011;10356;50.544;9.642;2024-03-06T06:38:54;81.90;;;38.33;;
20393;SDS011;10356;50.544;9.642;2024-03-06T06:41:21;85.93;;;41.03;;
20393;SDS011;10356;50.544;9.642;2024-03-06T06:43:49;87.00;;;40.53;;
20393;SDS011;10356;50.544;9.642;2024-03-06T06:46:17;92.17;;;41.20;;
20393;SDS011;10356;50.544;9.642;2024-03-06T06:48:44;94.53;;;41.80;;
20393;SDS011;10356;50.544;9.642;2024-03-06T06:51:12;109.33;;;48.17;;
20393;SDS011;10356;50.544;9.642;2024-03-06T06:53:39;113.40;;;53.77;;
20393;SDS011;10356;50.544;9.642;2024-03-06T06:56:08;110.37;;;56.17;;
20393;SDS011;10356;50.544;9.642;2024-03-06T06:58:34;95.77;;;44.27;;
20393;SDS011;10356;50.544;9.642;2024-03-06T07:01:01;128.33;;;65.80;;
20393;SDS011;10356;50.544;9.642;2024-03-06T07:03:29;165.23;;;98.27;;
20393;SDS011;10356;50.544;9.642;2024-03-06T07:05:55;103.30;;;50.63;;
20393;SDS011;10356;50.544;9.642;2024-03-06T07:08:22;103.30;;;51.20;;
20393;SDS011;10356;50.544;9.642;2024-03-06T07:10:49;113.10;;;60.20;;
20393;SDS011;10356;50.544;9.642;2024-03-06T07:13:17;104.30;;;50.67;;
20393;SDS011;10356;50.544;9.642;2024-03-06T07:15:44;100.63;;;49.27;;
20393;SDS011;10356;50.544;9.642;2024-03-06T07:18:10;108.23;;;55.90;;
20393;SDS011;10356;50.544;9.642;2024-03-06T07:20:39;103.00;;;55.90;;
20393;SDS011;10356;50.544;9.642;2024-03-06T07:23:06;106.70;;;53.43;;
20393;SDS011;10356;50.544;9.642;2024-03-06T07:25:32;112.80;;;62.63;;
20393;SDS011;10356;50.544;9.642;2024-03-06T07:27:59;106.07;;;57.83;;
20393;SDS011;10356;50.544;9.642;2024-03-06T07:30:27;93.90;;;45.00;;
20393;SDS011;10356;50.544;9.642;2024-03-06T07:32:55;87.23;;;44.00;;
20393;SDS011;10356;50.544;9.642;2024-03-06T07:35:22;84.60;;;43.77;;
20393;SDS011;10356;50.544;9.642;2024-03-06T07:37:49;77.93;;;39.57;;
20393;SDS011;10356;50.544;9.642;2024-03-06T07:40:15;74.60;;;39.37;;
20393;SDS011;10356;50.544;9.642;2024-03-06T07:42:42;72.87;;;39.03;;
20393;SDS011;10356;50.544;9.642;2024-03-06T07:45:09;65.80;;;36.27;;
20393;SDS011;10356;50.544;9.642;2024-03-06T07:47:37;69.63;;;36.80;;
20393;SDS011;10356;50.544;9.642;2024-03-06T07:50:04;70.67;;;37.20;;
20393;SDS011;10356;50.544;9.642;2024-03-06T07:52:32;71.93;;;37.20;;
20393;SDS011;10356;50.544;9.642;2024-03-06T07:54:59;70.60;;;38.07;;
20393;SDS011;10356;50.544;9.642;2024-03-06T07:57:25;69.23;;;38.63;;
20393;SDS011;10356;50.544;9.642;2024-03-06T07:59:52;63.57;;;37.47;;
20393;SDS011;10356;50.544;9.642;2024-03-06T08:02:19;65.00;;;36.50;;
20393;SDS011;10356;50.544;9.642;2024-03-06T08:04:47;62.70;;;35.23;;
20393;SDS011;10356;50.544;9.642;2024-03-06T08:07:14;63.53;;;37.83;;
20393;SDS011;10356;50.544;9.642;2024-03-06T08:09:40;97.17;;;66.97;;
20393;SDS011;10356;50.544;9.642;2024-03-06T08:12:08;58.20;;;33.17;;
20393;SDS011;10356;50.544;9.642;2024-03-06T08:14:34;70.60;;;43.80;;
20393;SDS011;10356;50.544;9.642;2024-03-06T08:17:01;169.63;;;131.23;;
20393;SDS011;10356;50.544;9.642;2024-03-06T08:19:28;88.30;;;65.00;;
20393;SDS011;10356;50.544;9.642;2024-03-06T08:21:56;59.17;;;34.60;;
20393;SDS011;10356;50.544;9.642;2024-03-06T08:24:22;133.43;;;103.33;;
20393;SDS011;10356;50.544;9.642;2024-03-06T08:26:49;96.50;;;68.53;;
20393;SDS011;10356;50.544;9.642;2024-03-06T08:29:15;108.63;;;78.30;;
20393;SDS011;10356;50.544;9.642;2024-03-06T08:31:42;54.07;;;34.30;;
20393;SDS011;10356;50.544;9.642;2024-03-06T08:34:08;54.33;;;33.77;;
20393;SDS011;10356;50.544;9.642;2024-03-06T08:36:35;47.30;;;29.37;;
20393;SDS011;10356;50.544;9.642;2024-03-06T08:39:03;75.93;;;51.87;;
20393;SDS011;10356;50.544;9.642;2024-03-06T08:41:30;77.33;;;51.87;;
20393;SDS011;10356;50.544;9.642;2024-03-06T08:43:56;46.33;;;29.77;;
20393;SDS011;10356;50.544;9.642;2024-03-06T08:46:23;45.67;;;28.57;;
20393;SDS011;10356;50.544;9.642;2024-03-06T08:48:50;41.90;;;25.80;;
20393;SDS011;10356;50.544;9.642;2024-03-06T08:51:16;54.70;;;34.50;;
20393;SDS011;10356;50.544;9.642;2024-03-06T08:53:42;44.50;;;27.73;;
20393;SDS011;10356;50.544;9.642;2024-03-06T08:56:10;38.13;;;24.97;;
20393;SDS011;10356;50.544;9.642;2024-03-06T08:58:37;44.13;;;26.20;;
20393;SDS011;10356;50.544;9.642;2024-03-06T09:01:03;40.60;;;26.00;;
20393;SDS011;10356;50.544;9.642;2024-03-06T09:03:30;64.17;;;44.00;;
20393;SDS011;10356;50.544;9.642;2024-03-06T09:05:57;79.50;;;53.03;;
20393;SDS011;10356;50.544;9.642;2024-03-06T09:08:24;43.33;;;28.63;;
20393;SDS011;10356;50.544;9.642;2024-03-06T09:10:51;59.50;;;42.17;;
20393;SDS011;10356;50.544;9.642;2024-03-06T09:13:19;35.80;;;26.00;;
20393;SDS011;10356;50.544;9.642;2024-03-06T09:15:45;40.00;;;26.53;;
20393;SDS011;10356;50.544;9.642;2024-03-06T09:18:12;41.73;;;27.23;;
20393;SDS011;10356;50.544;9.642;2024-03-06T09:20:38;36.47;;;25.53;;
20393;SDS011;10356;50.544;9.642;2024-03-06T09:23:05;57.77;;;35.43;;
20393;SDS011;10356;50.544;9.642;2024-03-06T09:25:31;58.80;;;36.93;;
20393;SDS011;10356;50.544;9.642;2024-03-06T09:27:58;123.77;;;81.77;;
20393;SDS011;10356;50.544;9.642;2024-03-06T09:30:26;61.87;;;42.07;;
20393;SDS011;10356;50.544;9.642;2024-03-06T09:32:53;178.03;;;111.47;;
20393;SDS011;10356;50.544;9.642;2024-03-06T09:35:19;53.33;;;33.33;;
20393;SDS011;10356;50.544;9.642;2024-03-06T09:37:46;138.57;;;83.70;;
20393;SDS011;10356;50.544;9.642;2024-03-06T09:40:19;64.60;;;41.40;;
20393;SDS011;10356;50.544;9.642;2024-03-06T09:42:47;162.27;;;102.80;;
20393;SDS011;10356;50.544;9.642;2024-03-06T09:45:14;67.87;;;44.33;;
20393;SDS011;10356;50.544;9.642;2024-03-06T09:47:42;149.93;;;90.63;;
20393;SDS011;10356;50.544;9.642;2024-03-06T09:50:09;57.03;;;35.50;;
20393;SDS011;10356;50.544;9.642;2024-03-06T09:52:39;48.57;;;30.97;;
20393;SDS011;10356;50.544;9.642;2024-03-06T09:55:08;118.67;;;71.70;;
20393;SDS011;10356;50.544;9.642;2024-03-06T09:57:35;51.33;;;31.17;;
20393;SDS011;10356;50.544;9.642;2024-03-06T10:00:02;73.67;;;45.27;;
20393;SDS011;10356;50.544;9.642;2024-03-06T10:02:34;46.97;;;29.03;;
20393;SDS011;10356;50.544;9.642;2024-03-06T10:05:05;52.27;;;32.30;;
20393;SDS011;10356;50.544;9.642;2024-03-06T10:07:46;45.33;;;28.47;;
20393;SDS011;10356;50.544;9.642;2024-03-06T10:10:14;98.10;;;53.53;;
20393;SDS011;10356;50.544;9.642;2024-03-06T10:12:40;53.33;;;33.50;;
20393;SDS011;10356;50.544;9.642;2024-03-06T10:15:08;61.03;;;36.30;;
20393;SDS011;10356;50.544;9.642;2024-03-06T10:17:37;46.90;;;29.83;;
20393;SDS011;10356;50.544;9.642;2024-03-06T10:20:09;40.60;;;27.53;;
20393;SDS011;10356;50.544;9.642;2024-03-06T10:22:44;44.80;;;28.83;;
20393;SDS011;10356;50.544;9.642;2024-03-06T10:25:11;41.47;;;26.83;;
20393;SDS011;10356;50.544;9.642;2024-03-06T10:27:37;42.77;;;28.90;;
20393;SDS011;10356;50.544;9.642;2024-03-06T10:30:04;41.93;;;27.40;;
20393;SDS011;10356;50.544;9.642;2024-03-06T10:32:36;45.10;;;28.37;;
20393;SDS011;10356;50.544;9.642;2024-03-06T10:35:02;47.93;;;29.73;;
20393;SDS011;10356;50.544;9.642;2024-03-06T10:37:32;50.53;;;31.33;;
20393;SDS011;10356;50.544;9.642;2024-03-06T10:40:01;43.13;;;27.93;;
20393;SDS011;10356;50.544;9.642;2024-03-06T10:42:31;45.83;;;29.10;;
20393;SDS011;10356;50.544;9.642;2024-03-06T10:44:59;44.77;;;28.63;;
20393;SDS011;10356;50.544;9.642;2024-03-06T10:47:27;45.33;;;29.30;;
20393;SDS011;10356;50.544;9.642;2024-03-06T10:49:54;45.53;;;30.23;;
20393;SDS011;10356;50.544;9.642;2024-03-06T10:52:25;46.87;;;30.43;;
20393;SDS011;10356;50.544;9.642;2024-03-06T10:54:55;42.07;;;28.33;;
20393;SDS011;10356;50.544;9.642;2024-03-06T10:57:24;46.27;;;29.30;;
20393;SDS011;10356;50.544;9.642;2024-03-06T10:59:52;44.57;;;29.37;;
20393;SDS011;10356;50.544;9.642;2024-03-06T11:02:18;47.67;;;30.07;;
20393;SDS011;10356;50.544;9.642;2024-03-06T11:04:47;47.43;;;29.27;;
20393;SDS011;10356;50.544;9.642;2024-03-06T11:07:13;47.23;;;28.83;;
20393;SDS011;10356;50.544;9.642;2024-03-06T11:09:40;46.20;;;29.07;;
20393;SDS011;10356;50.544;9.642;2024-03-06T11:12:09;43.27;;;28.20;;
20393;SDS011;10356;50.544;9.642;2024-03-06T11:14:36;45.10;;;30.10;;
20393;SDS011;10356;50.544;9.642;2024-03-06T11:17:03;46.53;;;29.93;;
20393;SDS011;10356;50.544;9.642;2024-03-06T11:19:31;48.43;;;30.33;;
20393;SDS011;10356;50.544;9.642;2024-03-06T11:22:18;43.10;;;27.73;;
20393;SDS011;10356;50.544;9.642;2024-03-06T11:25:05;82.00;;;48.93;;
20393;SDS011;10356;50.544;9.642;2024-03-06T11:27:35;60.77;;;38.30;;
20393;SDS011;10356;50.544;9.642;2024-03-06T11:30:31;72.87;;;41.17;;
20393;SDS011;10356;50.544;9.642;2024-03-06T11:32:57;60.00;;;39.07;;
20393;SDS011;10356;50.544;9.642;2024-03-06T11:35:24;69.13;;;38.37;;
20393;SDS011;10356;50.544;9.642;2024-03-06T11:37:50;49.47;;;31.03;;
20393;SDS011;10356;50.544;9.642;2024-03-06T11:40:20;52.23;;;34.57;;
20393;SDS011;10356;50.544;9.642;2024-03-06T11:42:50;52.20;;;34.10;;
20393;SDS011;10356;50.544;9.642;2024-03-06T11:45:17;50.67;;;32.33;;
20393;SDS011;10356;50.544;9.642;2024-03-06T11:47:56;62.53;;;41.77;;
20393;SDS011;10356;50.544;9.642;2024-03-06T11:50:25;47.20;;;31.13;;
20393;SDS011;10356;50.544;9.642;2024-03-06T11:52:53;52.87;;;30.50;;
20393;SDS011;10356;50.544;9.642;2024-03-06T11:55:20;46.93;;;28.87;;
20393;SDS011;10356;50.544;9.642;2024-03-06T11:57:47;52.47;;;30.27;;
20393;SDS011;10356;50.544;9.642;2024-03-06T12:00:15;46.03;;;28.73;;
20393;SDS011;10356;50.544;9.642;2024-03-06T12:02:42;50.30;;;29.37;;
20393;SDS011;10356;50.544;9.642;2024-03-06T12:05:09;45.97;;;28.57;;
20393;SDS011;10356;50.544;9.642;2024-03-06T12:07:44;51.13;;;28.27;;
20393;SDS011;10356;50.544;9.642;2024-03-06T12:10:11;40.33;;;25.80;;
20393;SDS011;10356;50.544;9.642;2024-03-06T12:12:37;37.93;;;25.27;;
20393;SDS011;10356;50.544;9.642;2024-03-06T12:15:04;36.50;;;24.47;;
20393;SDS011;10356;50.544;9.642;2024-03-06T12:17:41;36.73;;;24.37;;
20393;SDS011;10356;50.544;9.642;2024-03-06T12:20:11;43.00;;;25.43;;
20393;SDS011;10356;50.544;9.642;2024-03-06T12:22:43;40.53;;;26.27;;
20393;SDS011;10356;50.544;9.642;2024-03-06T12:25:10;42.63;;;26.20;;
20393;SDS011;10356;50.544;9.642;2024-03-06T12:27:36;106.73;;;75.87;;
20393;SDS011;10356;50.544;9.642;2024-03-06T12:30:07;177.43;;;104.63;;
20393;SDS011;10356;50.544;9.642;2024-03-06T12:32:39;334.10;;;172.63;;
20393;SDS011;10356;50.544;9.642;2024-03-06T12:35:07;208.30;;;105.93;;
20393;SDS011;10356;50.544;9.642;2024-03-06T12:37:35;295.37;;;146.77;;
20393;SDS011;10356;50.544;9.642;2024-03-06T12:40:02;311.03;;;161.13;;
20393;SDS011;10356;50.544;9.642;2024-03-06T12:42:30;227.60;;;113.77;;
20393;SDS011;10356;50.544;9.642;2024-03-06T12:44:56;325.17;;;173.13;;
20393;SDS011;10356;50.544;9.642;2024-03-06T12:47:23;249.70;;;133.37;;
20393;SDS011;10356;50.544;9.642;2024-03-06T12:49:51;235.23;;;124.60;;
20393;SDS011;10356;50.544;9.642;2024-03-06T12:52:18;76.83;;;45.60;;
20393;SDS011;10356;50.544;9.642;2024-03-06T12:54:45;46.57;;;30.93;;
20393;SDS011;10356;50.544;9.642;2024-03-06T12:57:11;61.83;;;43.30;;
20393;SDS011;10356;50.544;9.642;2024-03-06T12:59:38;42.80;;;26.97;;
20393;SDS011;10356;50.544;9.642;2024-03-06T13:02:04;45.07;;;25.10;;
20393;SDS011;10356;50.544;9.642;2024-03-06T13:04:32;41.17;;;26.07;;
20393;SDS011;10356;50.544;9.642;2024-03-06T13:06:59;39.23;;;24.17;;
20393;SDS011;10356;50.544;9.642;2024-03-06T13:09:26;52.47;;;34.07;;
20393;SDS011;10356;50.544;9.642;2024-03-06T13:11:53;40.77;;;27.33;;
20393;SDS011;10356;50.544;9.642;2024-03-06T13:14:19;45.60;;;29.73;;
20393;SDS011;10356;50.544;9.642;2024-03-06T13:16:46;41.40;;;26.00;;
20393;SDS011;10356;50.544;9.642;2024-03-06T13:19:12;48.53;;;29.60;;
20393;SDS011;10356;50.544;9.642;2024-03-06T13:21:39;49.83;;;31.00;;
20393;SDS011;10356;50.544;9.642;2024-03-06T13:24:07;43.77;;;28.50;;
20393;SDS011;10356;50.544;9.642;2024-03-06T13:26:33;43.30;;;28.57;;
20393;SDS011;10356;50.544;9.642;2024-03-06T13:29:02;53.33;;;33.63;;
20393;SDS011;10356;50.544;9.642;2024-03-06T13:31:29;47.40;;;29.40;;
20393;SDS011;10356;50.544;9.642;2024-03-06T13:33:58;48.77;;;29.63;;
20393;SDS011;10356;50.544;9.642;2024-03-06T13:36:25;78.87;;;48.43;;
20393;SDS011;10356;50.544;9.642;2024-03-06T13:38:51;43.60;;;27.93;;
20393;SDS011;10356;50.544;9.642;2024-03-06T13:41:19;38.97;;;26.03;;
20393;SDS011;10356;50.544;9.642;2024-03-06T13:43:46;43.27;;;27.57;;
20393;SDS011;10356;50.544;9.642;2024-03-06T13:46:12;42.57;;;25.27;;
20393;SDS011;10356;50.544;9.642;2024-03-06T13:48:39;41.43;;;25.17;;
20393;SDS011;10356;50.544;9.642;2024-03-06T13:51:05;39.77;;;26.23;;
20393;SDS011;10356;50.544;9.642;2024-03-06T13:53:31;43.23;;;26.93;;
20393;SDS011;10356;50.544;9.642;2024-03-06T13:55:58;40.83;;;25.13;;
20393;SDS011;10356;50.544;9.642;2024-03-06T13:58:26;36.33;;;24.07;;
20393;SDS011;10356;50.544;9.642;2024-03-06T14:00:53;42.60;;;26.77;;
20393;SDS011;10356;50.544;9.642;2024-03-06T14:03:19;41.03;;;26.17;;
20393;SDS011;10356;50.544;9.642;2024-03-06T14:05:47;38.37;;;25.27;;
20393;SDS011;10356;50.544;9.642;2024-03-06T14:08:13;42.77;;;26.43;;
20393;SDS011;10356;50.544;9.642;2024-03-06T14:10:41;39.93;;;26.47;;
20393;SDS011;10356;50.544;9.642;2024-03-06T14:13:08;44.13;;;25.93;;
20393;SDS011;10356;50.544;9.642;2024-03-06T14:15:36;37.67;;;25.93;;
20393;SDS011;10356;50.544;9.642;2024-03-06T14:18:02;43.03;;;25.70;;
20393;SDS011;10356;50.544;9.642;2024-03-06T14:20:31;38.83;;;25.15;;
20393;SDS011;10356;50.544;9.642;2024-03-06T14:22:58;42.77;;;25.03;;